Aeroporto :
LOGIN :

Iscrizione | Disclaimer

   EN    FR    IT 

 










Sommario :    VFR   VFR Marginale   IFR   IFR Intensivo   IFR Molto Intensivo
Visibilità : 
Base nubi : 
>= 8 km
>= 3000ft
5 / 8 km
1000 / 3000 ft
1500m / 5 km
500 / 1000 ft
800 / 1500m
200 / 500 ft
< 800m
< 200 ft
Simboli :   Temporali  Nebbia  Neve Forte  Precipitazioni Forti  Vento > 20 kt
SIGMETs :   Varie  Temporali  Ghiacco  Turbolenza  Onda orograficha  Ceneri Vulcaniche






- Altitudine del aeroporto : 202 ft
- Codice IATA : LGW


EGKK - London Gatwick

ULTIMO METAR :
  • 291220Z 21008KT 9999 FEW015 SCT022 18/13 Q1012

METARs OBSOLETI :
  • 291150Z 20007KT 160V250 9999 FEW010 SCT021 18/14 Q1012
  • 291120Z 19006KT 150V220 9999 FEW010 BKN033 16/14 Q1013
  • 291050Z 21006KT 170V240 9999 SCT010 BKN024 15/14 Q1013
  • 291020Z 23007KT 180V270 9000 -RA FEW008 BKN010 16/13 Q1013
  • 290950Z 22008KT 180V260 9999 FEW009 BKN018 15/13 Q1013

TAF TAF EGKK
Valido dal 29 a 12 ore il 30 a 18 ore UTC


291056Z 2912/3018 20006KT 9999 SCT015
PROB30
TEMPO 2912/2914 9000 -RA
PROB30
TEMPO 2921/3003 8000 SHRA
TEMPO 3009/3014 8000 SHRA
PROB30
TEMPO 3014/3018 8000 SHRA



MetMap, La meteo Aeronautica in un colpo d'occhio ! - Copyright ORBIFLY Dicembre 2007 - Disclaimer

ORBIFLY MET'MAP TEAM :

Programmazione e sviluppo : Alexandra Zaïnal
Concezione : Baudouin d'Aumeries
Supporto tecnico e logistico : Manuel Goepfert
Aiuto : Marc-Olivier Méhu
Aiuto per la traduzione : Arnaldo La Scala




FONTI E CREDITI :

   NOAA